createdAt,value
2022-11-23T00:01:15.587Z,35.83
2022-11-23T00:03:43.621Z,32.37
2022-11-23T00:06:11.616Z,36.07
2022-11-23T00:08:39.871Z,34.30
2022-11-23T00:11:08.017Z,34.77
2022-11-23T00:13:36.435Z,34.63
2022-11-23T00:16:08.288Z,35.77
2022-11-23T00:18:36.414Z,33.93
2022-11-23T00:21:08.273Z,37.83
2022-11-23T00:23:36.549Z,37.57
2022-11-23T00:26:05.543Z,35.33
2022-11-23T00:28:34.955Z,35.33
2022-11-23T00:31:03.007Z,35.67
2022-11-23T00:33:32.340Z,36.47
2022-11-23T00:36:01.690Z,36.37
2022-11-23T00:38:30.036Z,34.27
2022-11-23T00:41:02.036Z,34.90
2022-11-23T00:43:30.653Z,35.53
2022-11-23T00:46:09.275Z,34.83
2022-11-23T00:48:38.863Z,35.83
2022-11-23T00:51:09.124Z,32.37
2022-11-23T00:53:37.509Z,33.10
2022-11-23T00:56:06.702Z,34.07
2022-11-23T00:58:34.942Z,32.60
2022-11-23T01:01:04.794Z,31.57
2022-11-23T01:03:33.080Z,31.67
2022-11-23T01:06:10.597Z,32.10
2022-11-23T01:08:39.172Z,32.20
2022-11-23T01:11:08.913Z,33.30
2022-11-23T01:13:37.784Z,34.63
2022-11-23T01:16:06.320Z,31.23
2022-11-23T01:18:34.281Z,29.50
2022-11-23T01:21:02.862Z,31.20
2022-11-23T01:23:32.518Z,32.00
2022-11-23T01:26:05.938Z,30.77
2022-11-23T01:28:34.653Z,29.93
2022-11-23T01:31:08.436Z,27.60
2022-11-23T01:33:37.526Z,29.30
2022-11-23T01:36:11.259Z,29.80
2022-11-23T01:38:40.778Z,28.43
2022-11-23T01:41:10.464Z,30.57
2022-11-23T01:43:38.425Z,28.93
2022-11-23T01:46:07.602Z,28.13
2022-11-23T01:48:40.333Z,28.43
2022-11-23T01:51:13.023Z,29.37
2022-11-23T01:53:43.485Z,30.53
2022-11-23T01:56:15.234Z,29.97
2022-11-23T01:58:47.190Z,30.57
2022-11-23T02:01:15.847Z,31.17
2022-11-23T02:03:45.480Z,32.07
2022-11-23T02:06:18.102Z,33.07
2022-11-23T02:08:48.477Z,29.03
2022-11-23T02:11:17.887Z,30.90
2022-11-23T02:13:48.319Z,33.87
2022-11-23T02:16:17.361Z,31.87
2022-11-23T02:18:48.802Z,31.10
2022-11-23T02:21:16.818Z,33.43
2022-11-23T02:23:53.840Z,31.53
2022-11-23T02:26:25.918Z,32.63
2022-11-23T02:28:58.338Z,34.13
2022-11-23T02:31:26.406Z,32.00
2022-11-23T02:33:54.383Z,30.97
2022-11-23T02:36:38.991Z,31.30
2022-11-23T02:39:09.993Z,29.80
2022-11-23T02:41:42.494Z,30.67
2022-11-23T02:44:20.350Z,31.93
2022-11-23T02:46:48.404Z,36.03
2022-11-23T02:49:16.409Z,35.37
2022-11-23T02:51:44.417Z,36.87
2022-11-23T02:54:12.409Z,35.20
2022-11-23T02:56:41.873Z,35.67
2022-11-23T02:59:10.210Z,36.10
2022-11-23T03:01:39.944Z,35.40
2022-11-23T03:04:07.958Z,33.77
2022-11-23T03:06:35.937Z,33.57
2022-11-23T03:09:04.254Z,33.77
2022-11-23T03:11:32.222Z,31.73
2022-11-23T03:14:01.756Z,31.90
2022-11-23T03:16:29.749Z,29.50
2022-11-23T03:18:57.763Z,28.10
2022-11-23T03:21:25.754Z,28.33
2022-11-23T03:23:53.711Z,27.27
2022-11-23T03:26:21.674Z,26.30
2022-11-23T03:28:49.697Z,23.90
2022-11-23T03:31:19.047Z,26.23
2022-11-23T03:33:47.048Z,26.20
2022-11-23T03:36:15.061Z,24.87
2022-11-23T03:38:43.042Z,28.73
2022-11-23T03:41:10.990Z,30.27
2022-11-23T03:43:38.963Z,35.00
2022-11-23T03:46:07.016Z,32.13
2022-11-23T03:48:36.334Z,30.10
2022-11-23T03:51:04.266Z,28.67
2022-11-23T03:53:32.235Z,28.60
2022-11-23T03:56:00.250Z,29.03
2022-11-23T03:58:28.313Z,27.60
2022-11-23T04:00:56.454Z,36.67
2022-11-23T04:03:24.455Z,38.03
2022-11-23T04:05:53.866Z,32.40
2022-11-23T04:08:21.973Z,30.20
2022-11-23T04:10:49.965Z,29.43
2022-11-23T04:13:17.945Z,29.33
2022-11-23T04:15:45.896Z,29.20
2022-11-23T04:18:13.864Z,29.57
2022-11-23T04:20:41.879Z,29.67
2022-11-23T04:23:13.604Z,30.17
2022-11-23T04:25:41.826Z,31.10
2022-11-23T04:28:10.155Z,30.93
2022-11-23T04:30:38.170Z,30.47
2022-11-23T04:33:06.258Z,30.03
2022-11-23T04:35:34.961Z,30.10
2022-11-23T04:38:02.930Z,29.43
2022-11-23T04:40:32.358Z,31.50
2022-11-23T04:43:01.780Z,29.67
2022-11-23T04:45:29.952Z,29.77
2022-11-23T04:47:57.912Z,31.67
2022-11-23T04:50:25.886Z,30.67
2022-11-23T04:52:53.969Z,31.50
2022-11-23T04:55:21.965Z,29.93
2022-11-23T04:57:51.275Z,29.10
2022-11-23T05:00:19.635Z,31.77
2022-11-23T05:02:47.618Z,27.80
2022-11-23T05:05:15.677Z,27.47
2022-11-23T05:07:43.685Z,28.10
2022-11-23T05:10:12.118Z,28.40
2022-11-23T05:12:40.104Z,29.20
2022-11-23T05:15:12.742Z,29.47
2022-11-23T05:17:40.716Z,30.57
2022-11-23T05:20:10.055Z,30.53
2022-11-23T05:22:38.017Z,28.70
2022-11-23T05:25:06.860Z,29.50
2022-11-23T05:27:35.237Z,29.70
2022-11-23T05:30:03.350Z,27.37
2022-11-23T05:32:32.647Z,26.10
2022-11-23T05:35:00.578Z,26.37
2022-11-23T05:37:28.549Z,28.07
2022-11-23T05:39:56.514Z,26.00
2022-11-23T05:42:24.505Z,26.77
2022-11-23T05:44:52.498Z,28.13
2022-11-23T05:47:20.451Z,27.90
2022-11-23T05:49:50.469Z,26.83
2022-11-23T05:52:18.773Z,27.07
2022-11-23T05:54:46.783Z,27.53
2022-11-23T05:57:15.817Z,26.30
2022-11-23T05:59:43.775Z,28.90
2022-11-23T06:02:11.781Z,27.20
2022-11-23T06:04:39.739Z,27.23
2022-11-23T06:07:09.124Z,28.63
2022-11-23T06:09:37.155Z,29.23
2022-11-23T06:12:05.490Z,30.20
2022-11-23T06:14:33.468Z,30.10
2022-11-23T06:17:01.429Z,28.10
2022-11-23T06:19:30.513Z,29.20
2022-11-23T06:21:58.931Z,28.53
2022-11-23T06:24:28.349Z,29.40
2022-11-23T06:26:56.416Z,29.10
2022-11-23T06:29:24.375Z,29.93
2022-11-23T06:31:52.420Z,31.48
2022-11-23T06:34:20.376Z,29.00
2022-11-23T06:36:48.358Z,28.93
2022-11-23T06:39:16.367Z,28.60
2022-11-23T06:41:45.715Z,28.80
2022-11-23T06:44:13.711Z,28.93
2022-11-23T06:46:41.676Z,28.03
2022-11-23T06:49:09.779Z,29.60
2022-11-23T06:51:37.859Z,28.43
2022-11-23T06:54:06.021Z,30.60
2022-11-23T06:56:33.954Z,29.17
2022-11-23T06:59:03.282Z,29.07
2022-11-23T07:01:32.825Z,29.57
2022-11-23T07:04:01.040Z,29.93
2022-11-23T07:06:29.911Z,30.97
2022-11-23T07:08:58.694Z,28.53
2022-11-23T07:11:26.676Z,29.77
2022-11-23T07:13:54.926Z,31.30
2022-11-23T07:16:24.830Z,31.27
2022-11-23T07:18:52.916Z,30.33
2022-11-23T07:21:20.895Z,30.50
2022-11-23T07:23:48.870Z,30.60
2022-11-23T07:26:16.857Z,30.33
2022-11-23T07:28:44.856Z,32.57
2022-11-23T07:31:15.972Z,30.07
2022-11-23T07:33:46.671Z,30.57
2022-11-23T07:36:14.875Z,29.67
2022-11-23T07:38:43.103Z,28.00
2022-11-23T07:41:11.338Z,28.63
2022-11-23T07:43:39.364Z,31.40
2022-11-23T07:46:07.561Z,31.53
2022-11-23T07:48:36.664Z,31.77
2022-11-23T07:51:06.409Z,28.03
2022-11-23T07:53:35.988Z,27.73
2022-11-23T07:56:04.678Z,30.67
2022-11-23T07:58:33.618Z,30.87
2022-11-23T08:01:01.589Z,32.27
2022-11-23T08:03:30.073Z,33.60
2022-11-23T08:05:58.628Z,33.70
2022-11-23T08:08:28.076Z,33.17
2022-11-23T08:10:56.401Z,35.80
2022-11-23T08:13:24.507Z,34.17
2022-11-23T08:15:55.371Z,34.87
2022-11-23T08:18:24.054Z,33.67
2022-11-23T08:20:52.120Z,32.97
2022-11-23T08:23:20.825Z,29.00
2022-11-23T08:25:50.613Z,27.57
2022-11-23T08:28:18.855Z,25.97
2022-11-23T08:30:47.172Z,24.60
2022-11-23T08:33:15.594Z,27.30
2022-11-23T08:35:44.236Z,26.67
2022-11-23T08:38:13.701Z,27.07
2022-11-23T08:40:42.342Z,25.73
2022-11-23T08:43:11.742Z,26.27
2022-11-23T08:45:39.734Z,25.20
2022-11-23T08:48:08.834Z,26.33
2022-11-23T08:50:37.207Z,25.00
2022-11-23T08:53:05.739Z,24.77
2022-11-23T08:55:33.813Z,26.37
2022-11-23T08:58:02.038Z,26.00
2022-11-23T09:00:31.442Z,26.63
2022-11-23T09:03:00.138Z,25.23
2022-11-23T09:05:28.773Z,27.17
2022-11-23T09:07:57.914Z,26.07
2022-11-23T09:10:25.978Z,24.13
2022-11-23T09:12:53.995Z,23.13
2022-11-23T09:15:22.511Z,24.37
2022-11-23T09:17:52.366Z,22.50
2022-11-23T09:20:20.689Z,21.97
2022-11-23T09:22:53.471Z,23.90
2022-11-23T09:25:22.708Z,22.20
2022-11-23T09:27:51.315Z,21.03
2022-11-23T09:30:19.451Z,21.97
2022-11-23T09:32:47.419Z,22.60
2022-11-23T09:35:16.880Z,22.27
2022-11-23T09:37:44.850Z,21.23
2022-11-23T09:40:17.231Z,21.73
2022-11-23T09:43:10.021Z,22.40
2022-11-23T09:45:45.735Z,21.70
2022-11-23T09:48:27.147Z,21.93
2022-11-23T09:51:02.178Z,21.60
2022-11-23T09:53:35.197Z,21.20
2022-11-23T09:56:03.502Z,20.93
2022-11-23T09:58:39.260Z,21.27
2022-11-23T10:01:12.552Z,20.63
2022-11-23T10:03:48.288Z,20.33
2022-11-23T10:06:22.290Z,21.43
2022-11-23T10:09:07.919Z,22.07
2022-11-23T10:12:05.442Z,22.03
2022-11-23T10:14:52.356Z,20.57
2022-11-23T10:17:32.963Z,21.70
2022-11-23T10:20:18.637Z,20.63
2022-11-23T10:22:54.251Z,20.37
2022-11-23T10:25:24.042Z,21.03
2022-11-23T10:27:57.536Z,21.03
2022-11-23T10:30:25.505Z,20.43
2022-11-23T10:32:59.699Z,19.90
2022-11-23T10:35:31.014Z,20.87
2022-11-23T10:38:18.693Z,20.03
2022-11-23T10:40:58.756Z,21.33
2022-11-23T10:43:31.271Z,19.73
2022-11-23T10:46:32.764Z,19.87
2022-11-23T10:49:18.547Z,19.80
2022-11-23T10:51:55.849Z,19.40
2022-11-23T10:54:30.355Z,19.40
2022-11-23T10:57:00.320Z,20.73
2022-11-23T10:59:37.476Z,19.97
2022-11-23T11:02:22.317Z,20.93
2022-11-23T11:04:57.350Z,20.37
2022-11-23T11:07:29.608Z,18.33
2022-11-23T11:10:00.532Z,20.53
2022-11-23T11:12:30.697Z,19.17
2022-11-23T11:15:11.375Z,20.60
2022-11-23T11:17:41.985Z,19.73
2022-11-23T11:20:31.503Z,20.43
2022-11-23T11:23:01.117Z,21.50
2022-11-23T11:25:34.050Z,19.87
2022-11-23T11:28:03.819Z,19.33
2022-11-23T11:30:42.913Z,19.50
2022-11-23T11:33:15.800Z,18.97
2022-11-23T11:35:48.225Z,19.10
2022-11-23T11:38:21.172Z,19.40
2022-11-23T11:40:52.223Z,20.53
2022-11-23T11:43:32.305Z,20.77
2022-11-23T11:49:05.573Z,22.13
2022-11-23T11:51:38.097Z,21.30
2022-11-23T11:54:14.555Z,23.20
2022-11-23T11:56:46.938Z,20.70
2022-11-23T11:59:21.257Z,18.70
2022-11-23T12:01:58.016Z,19.10
2022-11-23T12:04:32.604Z,18.20
2022-11-23T12:07:06.896Z,17.77
2022-11-23T12:09:41.712Z,18.77
2022-11-23T12:12:17.190Z,20.00
2022-11-23T12:14:46.745Z,19.27
2022-11-23T12:17:37.323Z,19.53
2022-11-23T12:20:11.844Z,21.23
2022-11-23T12:22:52.452Z,21.20
2022-11-23T12:25:33.137Z,20.07
2022-11-23T12:28:17.033Z,18.60
2022-11-23T12:30:52.353Z,21.33
2022-11-23T12:36:40.304Z,19.93
2022-11-23T12:39:23.176Z,20.17
2022-11-23T12:41:57.772Z,19.43
2022-11-23T12:44:49.238Z,19.50
2022-11-23T12:47:30.958Z,20.00
2022-11-23T12:50:06.701Z,20.30
2022-11-23T12:52:49.716Z,21.03
2022-11-23T12:55:24.055Z,22.00
2022-11-23T12:57:57.497Z,22.47
2022-11-23T13:00:32.535Z,23.20
2022-11-23T13:03:30.318Z,21.60
2022-11-23T13:06:34.150Z,21.00
2022-11-23T13:09:24.660Z,20.37
2022-11-23T13:12:14.200Z,20.20
2022-11-23T13:14:47.868Z,20.03
2022-11-23T13:17:32.132Z,20.40
2022-11-23T13:20:21.943Z,21.47
2022-11-23T13:22:51.638Z,22.13
2022-11-23T13:25:25.360Z,21.80
2022-11-23T13:28:01.579Z,23.67
2022-11-23T13:30:51.815Z,23.40
2022-11-23T13:33:37.599Z,24.17
2022-11-23T13:36:11.430Z,21.93
2022-11-23T13:38:43.445Z,22.83
2022-11-23T13:41:57.205Z,21.40
2022-11-23T13:44:28.443Z,23.63
2022-11-23T13:47:05.600Z,21.80
2022-11-23T13:49:40.961Z,21.40
2022-11-23T13:52:31.236Z,23.53
2022-11-23T13:55:09.685Z,21.83
2022-11-23T13:57:39.244Z,21.80
2022-11-23T14:00:45.119Z,22.50
2022-11-23T14:03:51.457Z,23.17
2022-11-23T14:06:34.792Z,24.17
2022-11-23T14:09:07.744Z,24.63
2022-11-23T14:11:41.461Z,23.27
2022-11-23T14:14:19.786Z,24.80
2022-11-23T14:17:24.801Z,23.07
2022-11-23T14:20:15.245Z,21.93
2022-11-23T14:22:57.364Z,20.57
2022-11-23T14:25:40.362Z,20.90
2022-11-23T14:28:24.964Z,23.27
2022-11-23T14:31:07.454Z,25.00
2022-11-23T14:33:45.956Z,22.83
2022-11-23T14:36:26.489Z,21.37
2022-11-23T14:39:38.631Z,23.07
2022-11-23T14:42:13.124Z,23.33
2022-11-23T14:44:42.711Z,21.97
2022-11-23T14:47:12.271Z,19.70
2022-11-23T14:49:50.578Z,18.60
2022-11-23T14:52:21.365Z,23.20
2022-11-23T14:54:52.799Z,23.33
2022-11-23T14:57:23.700Z,21.97
2022-11-23T14:59:55.973Z,22.33
2022-11-23T15:02:28.307Z,19.70
2022-11-23T15:05:03.785Z,20.47
2022-11-23T15:07:48.090Z,20.87
2022-11-23T15:10:29.242Z,21.40
2022-11-23T15:12:57.341Z,22.93
2022-11-23T15:15:27.681Z,22.47
2022-11-23T15:17:57.119Z,21.53
2022-11-23T15:20:29.829Z,22.27
2022-11-23T15:22:57.892Z,21.73
2022-11-23T15:25:28.274Z,21.43
2022-11-23T15:27:56.601Z,21.97
2022-11-23T15:30:30.943Z,22.10
2022-11-23T15:33:01.126Z,23.20
2022-11-23T15:35:33.769Z,20.97
2022-11-23T15:38:03.703Z,22.67
2022-11-23T15:40:36.304Z,23.07
2022-11-23T15:43:04.769Z,24.57
2022-11-23T15:45:38.684Z,23.70
2022-11-23T15:48:11.574Z,23.93
2022-11-23T15:50:48.284Z,24.50
2022-11-23T15:53:16.429Z,23.57
2022-11-23T15:55:46.216Z,22.63
2022-11-23T15:58:18.365Z,23.73
2022-11-23T16:00:50.906Z,28.60
2022-11-23T16:03:28.173Z,26.57
2022-11-23T16:06:15.951Z,27.00
2022-11-23T16:08:43.951Z,28.63
2022-11-23T16:11:32.739Z,26.90
2022-11-23T16:14:14.966Z,27.07
2022-11-23T16:16:46.049Z,27.00
2022-11-23T16:19:30.687Z,24.10
2022-11-23T16:22:02.892Z,25.80
2022-11-23T16:24:34.055Z,24.77
2022-11-23T16:27:13.736Z,21.90
2022-11-23T16:29:42.254Z,23.73
2022-11-23T16:32:24.333Z,24.23
2022-11-23T16:34:52.489Z,26.77
2022-11-23T16:37:21.018Z,30.73
2022-11-23T16:39:49.151Z,29.37
2022-11-23T16:42:18.907Z,27.33
2022-11-23T16:44:46.862Z,29.90
2022-11-23T16:47:26.070Z,24.40
2022-11-23T16:49:57.113Z,26.77
2022-11-23T16:52:25.506Z,26.77
2022-11-23T16:54:53.890Z,26.10
2022-11-23T16:57:29.967Z,32.03
2022-11-23T16:59:58.547Z,26.73
2022-11-23T17:02:26.653Z,28.83
2022-11-23T17:04:54.982Z,27.97
2022-11-23T17:07:23.167Z,27.10
2022-11-23T17:09:51.188Z,26.77
2022-11-23T17:12:20.922Z,24.00
2022-11-23T17:14:51.308Z,25.47
2022-11-23T17:17:22.154Z,24.07
2022-11-23T17:19:51.365Z,24.73
2022-11-23T17:22:20.455Z,23.83
2022-11-23T17:24:49.450Z,25.20
2022-11-23T17:27:20.038Z,25.30
2022-11-23T17:29:52.484Z,24.90
2022-11-23T17:32:20.430Z,25.20
2022-11-23T17:34:48.419Z,24.27
2022-11-23T17:37:19.851Z,23.33
2022-11-23T17:39:48.034Z,22.60
2022-11-23T17:42:16.316Z,22.57
2022-11-23T17:44:44.556Z,22.83
2022-11-23T17:47:28.653Z,24.40
2022-11-23T17:49:57.347Z,25.20
2022-11-23T17:52:25.879Z,23.53
2022-11-23T17:54:53.901Z,25.87
2022-11-23T17:57:25.597Z,27.87
2022-11-23T17:59:55.123Z,26.80
2022-11-23T18:02:25.409Z,27.83
2022-11-23T18:04:53.377Z,26.80
2022-11-23T18:07:21.399Z,28.93
2022-11-23T18:09:50.343Z,29.77
2022-11-23T18:12:19.314Z,30.10
2022-11-23T18:14:47.392Z,28.03
2022-11-23T18:17:16.062Z,29.73
2022-11-23T18:19:45.398Z,27.17
2022-11-23T18:22:13.395Z,28.23
2022-11-23T18:24:41.378Z,29.30
2022-11-23T18:27:09.404Z,28.93
2022-11-23T18:29:37.823Z,29.17
2022-11-23T18:32:06.736Z,26.97
2022-11-23T18:34:34.706Z,26.10
2022-11-23T18:37:04.063Z,25.13
2022-11-23T18:39:32.453Z,25.43
2022-11-23T18:42:05.514Z,24.53
2022-11-23T18:44:34.106Z,24.00
2022-11-23T18:47:02.118Z,23.80
2022-11-23T18:49:30.321Z,22.50
2022-11-23T18:51:58.687Z,22.43
2022-11-23T18:54:28.075Z,22.33
2022-11-23T18:56:56.059Z,22.10
2022-11-23T19:02:12.457Z,24.33
2022-11-23T19:04:40.588Z,23.97
2022-11-23T19:07:09.270Z,25.27
2022-11-23T19:09:38.708Z,24.57
2022-11-23T19:12:07.297Z,25.40
2022-11-23T19:14:35.308Z,24.20
2022-11-23T19:17:03.529Z,25.90
2022-11-23T19:19:32.055Z,26.47
2022-11-23T19:22:00.860Z,26.53
2022-11-23T19:24:28.834Z,28.23
2022-11-23T19:26:58.257Z,24.97
2022-11-23T19:29:26.964Z,25.30
2022-11-23T19:31:55.302Z,25.33
2022-11-23T19:34:23.459Z,29.70
2022-11-23T19:36:51.425Z,33.97
2022-11-23T19:39:19.495Z,31.70
2022-11-23T19:41:48.315Z,29.37
2022-11-23T19:44:17.808Z,28.43
2022-11-23T19:46:45.907Z,27.53
2022-11-23T19:49:13.906Z,25.80
2022-11-23T19:51:41.916Z,27.57
2022-11-23T19:54:10.349Z,33.93
2022-11-23T19:56:38.622Z,31.27
2022-11-23T19:59:06.917Z,28.73
2022-11-23T20:01:36.449Z,24.83
2022-11-23T20:04:09.437Z,22.30
2022-11-23T20:06:39.565Z,23.07
2022-11-23T20:09:09.351Z,20.87
2022-11-23T20:11:40.037Z,22.67
2022-11-23T20:14:08.459Z,22.27
2022-11-23T20:16:37.873Z,24.23
2022-11-23T20:19:07.785Z,22.37
2022-11-23T20:21:36.858Z,23.87
2022-11-23T20:24:07.011Z,23.27
2022-11-23T20:26:36.658Z,23.67
2022-11-23T20:29:05.943Z,22.10
2022-11-23T20:31:34.947Z,22.87
2022-11-23T20:34:07.390Z,24.00
2022-11-23T20:36:37.871Z,24.50
2022-11-23T20:39:08.397Z,23.80
2022-11-23T20:41:38.025Z,24.20
2022-11-23T20:44:07.891Z,23.47
2022-11-23T20:47:00.566Z,23.83
2022-11-23T20:49:25.236Z,25.07
2022-11-23T20:51:53.233Z,26.57
2022-11-23T20:54:21.200Z,24.90
2022-11-23T20:56:49.151Z,24.93
2022-11-23T20:59:17.327Z,25.10
2022-11-23T21:01:45.445Z,22.00
2022-11-23T21:04:13.523Z,24.23
2022-11-23T21:06:42.818Z,24.73
2022-11-23T21:09:11.227Z,24.90
2022-11-23T21:11:56.728Z,24.93
2022-11-23T21:14:27.812Z,23.77
2022-11-23T21:16:58.373Z,22.50
2022-11-23T21:19:28.218Z,22.20
2022-11-23T21:21:58.899Z,22.73
2022-11-23T21:24:27.244Z,24.17
2022-11-23T21:26:55.298Z,23.97
2022-11-23T21:29:23.838Z,24.20
2022-11-23T21:31:51.980Z,23.17
2022-11-23T21:34:21.882Z,24.00
2022-11-23T21:36:50.486Z,23.00
2022-11-23T21:39:20.439Z,22.80
2022-11-23T21:41:50.947Z,23.20
2022-11-23T21:44:19.303Z,22.83
2022-11-23T21:46:47.668Z,24.33
2022-11-23T21:49:15.715Z,23.37
2022-11-23T21:51:44.608Z,23.70
2022-11-23T21:54:15.406Z,24.93
2022-11-23T21:56:45.695Z,25.63
2022-11-23T21:59:14.598Z,25.97
2022-11-23T22:10:58.222Z,23.97
2022-11-23T22:13:32.692Z,23.40
2022-11-23T22:16:13.041Z,24.07
2022-11-23T22:18:41.487Z,24.50
2022-11-23T22:21:10.281Z,23.47
2022-11-23T22:23:38.753Z,21.83
2022-11-23T22:26:09.859Z,21.30
2022-11-23T22:28:42.063Z,27.37
2022-11-23T22:31:12.352Z,33.03
2022-11-23T22:33:41.500Z,29.10
2022-11-23T22:36:12.295Z,24.30
2022-11-23T22:38:41.281Z,24.27
2022-11-23T22:41:11.557Z,23.33
2022-11-23T22:43:41.389Z,22.97
2022-11-23T22:46:12.112Z,23.10
2022-11-23T22:48:41.602Z,23.57
2022-11-23T22:51:12.386Z,24.47
2022-11-23T22:53:44.691Z,23.10
2022-11-23T22:56:15.015Z,23.57
2022-11-23T22:58:45.728Z,24.23
2022-11-23T23:01:15.728Z,24.23
2022-11-23T23:03:44.488Z,23.50
2022-11-23T23:06:17.132Z,25.13
2022-11-23T23:08:45.860Z,24.13
2022-11-23T23:11:15.416Z,22.97
2022-11-23T23:13:45.232Z,22.80
2022-11-23T23:16:14.603Z,22.53
2022-11-23T23:18:43.920Z,22.90
2022-11-23T23:21:14.590Z,23.37
2022-11-23T23:23:45.526Z,23.53
2022-11-23T23:26:15.010Z,23.47
2022-11-23T23:28:45.007Z,21.67
2022-11-23T23:31:16.380Z,21.60
2022-11-23T23:33:45.978Z,22.10
2022-11-23T23:36:16.616Z,22.97
2022-11-23T23:38:45.645Z,21.73
2022-11-23T23:41:14.677Z,23.57
2022-11-23T23:43:44.697Z,23.50
2022-11-23T23:46:14.577Z,21.73
2022-11-23T23:48:43.224Z,20.90
2022-11-23T23:51:14.489Z,21.00
2022-11-23T23:53:43.537Z,22.17
2022-11-23T23:56:15.406Z,21.70
2022-11-23T23:58:45.669Z,20.03
